PSRGS SBRF-SBTC
Flight info
| Callsign | PSRGS |
|---|---|
| Flight time | 1h 14m |
| Altitude | 40000 |
| Route | MEXAR UZ14 ESMOX UZ73 DOPRU DCT |
| Aircraft | C750/M-SBDE3FGHRWXY/S |
Departure
| Time | 2026-04-15 16:05 |
|---|---|
| Airport | Recife/Guararapes - Gilberto Freyre International Airport (SBRF) |
Arrival
| Time | 2026-04-15 17:20 |
|---|---|
| Airport | Una-Comandatuba Airport (SBTC) |
| Time | Latitude | Longitude | Altitude | Speed | Heading |
|---|---|---|---|---|---|
| 2026-04-15 15:48 | -8.12495 | -34.92068 | 32 ft | 0 kts | 120° |
| 2026-04-15 15:57 | -8.12501 | -34.92066 | 32 ft | 1 kts | 177° |
| 2026-04-15 15:57 | -8.12504 | -34.92069 | 32 ft | 1 kts | 216° |
| 2026-04-15 15:57 | -8.12515 | -34.92102 | 33 ft | 9 kts | 242° |
| 2026-04-15 15:58 | -8.12568 | -34.92148 | 33 ft | 9 kts | 227° |
| 2026-04-15 15:58 | -8.12556 | -34.92192 | 33 ft | 7 kts | 332° |
| 2026-04-15 15:58 | -8.12514 | -34.92207 | 33 ft | 7 kts | 341° |
| 2026-04-15 15:58 | -8.12457 | -34.92225 | 32 ft | 11 kts | 343° |
| 2026-04-15 15:59 | -8.12386 | -34.92249 | 32 ft | 10 kts | 341° |
| 2026-04-15 15:59 | -8.12322 | -34.92270 | 32 ft | 9 kts | 342° |
| 2026-04-15 15:59 | -8.12265 | -34.92289 | 32 ft | 9 kts | 342° |
| 2026-04-15 15:59 | -8.12209 | -34.92307 | 31 ft | 8 kts | 342° |
| 2026-04-15 16:00 | -8.12153 | -34.92326 | 31 ft | 8 kts | 342° |
| 2026-04-15 16:00 | -8.12098 | -34.92344 | 30 ft | 8 kts | 342° |
| 2026-04-15 16:00 | -8.12044 | -34.92362 | 30 ft | 8 kts | 342° |
| 2026-04-15 16:00 | -8.11993 | -34.92379 | 30 ft | 8 kts | 342° |
| 2026-04-15 16:01 | -8.11944 | -34.92395 | 29 ft | 8 kts | 342° |
| 2026-04-15 16:01 | -8.11883 | -34.92415 | 29 ft | 11 kts | 340° |
| 2026-04-15 16:01 | -8.11803 | -34.92442 | 29 ft | 13 kts | 342° |
| 2026-04-15 16:01 | -8.11720 | -34.92469 | 29 ft | 12 kts | 341° |
| 2026-04-15 16:02 | -8.11641 | -34.92496 | 29 ft | 11 kts | 341° |
| 2026-04-15 16:02 | -8.11579 | -34.92537 | 29 ft | 9 kts | 319° |
| 2026-04-15 16:02 | -8.11532 | -34.92577 | 29 ft | 9 kts | 319° |
| 2026-04-15 16:02 | -8.11489 | -34.92615 | 29 ft | 8 kts | 319° |
| 2026-04-15 16:03 | -8.11468 | -34.92647 | 29 ft | 4 kts | 246° |
| 2026-04-15 16:03 | -8.11490 | -34.92672 | 28 ft | 7 kts | 220° |
| 2026-04-15 16:03 | -8.11537 | -34.92679 | 28 ft | 7 kts | 168° |
| 2026-04-15 16:03 | -8.11566 | -34.92670 | 28 ft | 0 kts | 162° |
| 2026-04-15 16:05 | -8.11614 | -34.92654 | 28 ft | 37 kts | 161° |
| 2026-04-15 16:05 | -8.12232 | -34.92445 | 31 ft | 141 kts | 161° |
| 2026-04-15 16:05 | -8.13260 | -34.92095 | 443 ft | 164 kts | 160° |
| 2026-04-15 16:05 | -8.14370 | -34.91732 | 1206 ft | 171 kts | 160° |
| 2026-04-15 16:06 | -8.15516 | -34.91373 | 2067 ft | 176 kts | 161° |
| 2026-04-15 16:06 | -8.16731 | -34.91020 | 2793 ft | 188 kts | 163° |
| 2026-04-15 16:06 | -8.18055 | -34.91014 | 3565 ft | 193 kts | 187° |
| 2026-04-15 16:06 | -8.19357 | -34.91281 | 4514 ft | 189 kts | 188° |
| 2026-04-15 16:07 | -8.20637 | -34.91478 | 5433 ft | 182 kts | 185° |
| 2026-04-15 16:07 | -8.21876 | -34.91643 | 6292 ft | 177 kts | 185° |
| 2026-04-15 16:07 | -8.24315 | -34.91982 | 7876 ft | 180 kts | 185° |
| 2026-04-15 16:08 | -8.25657 | -34.92167 | 8129 ft | 214 kts | 186° |
| 2026-04-15 16:08 | -8.27259 | -34.92393 | 8044 ft | 251 kts | 186° |
| 2026-04-15 16:08 | -8.29107 | -34.92662 | 7973 ft | 281 kts | 186° |
| 2026-04-15 16:08 | -8.31039 | -34.92942 | 7927 ft | 280 kts | 186° |
| 2026-04-15 16:09 | -8.32981 | -34.93220 | 7924 ft | 283 kts | 186° |
| 2026-04-15 16:09 | -8.34931 | -34.93499 | 7924 ft | 283 kts | 186° |
| 2026-04-15 16:09 | -8.36887 | -34.93779 | 7919 ft | 286 kts | 186° |
| 2026-04-15 16:09 | -8.38859 | -34.94061 | 7923 ft | 285 kts | 186° |
| 2026-04-15 16:10 | -8.40839 | -34.94345 | 8128 ft | 293 kts | 186° |
| 2026-04-15 16:10 | -8.42814 | -34.94629 | 9475 ft | 282 kts | 186° |
| 2026-04-15 16:10 | -8.44727 | -34.95119 | 10119 ft | 301 kts | 204° |
| 2026-04-15 16:10 | -8.46546 | -34.96357 | 10296 ft | 330 kts | 216° |
| 2026-04-15 16:11 | -8.48429 | -34.97847 | 10472 ft | 356 kts | 217° |
| 2026-04-15 16:11 | -8.50431 | -34.99360 | 11186 ft | 360 kts | 215° |
| 2026-04-15 16:11 | -8.52473 | -35.00838 | 11972 ft | 363 kts | 215° |
| 2026-04-15 16:11 | -8.54533 | -35.02353 | 12689 ft | 368 kts | 216° |
| 2026-04-15 16:12 | -8.56597 | -35.03906 | 13404 ft | 372 kts | 217° |
| 2026-04-15 16:12 | -8.58691 | -35.05473 | 14101 ft | 377 kts | 216° |
| 2026-04-15 16:12 | -8.60816 | -35.07043 | 14772 ft | 381 kts | 216° |
| 2026-04-15 16:12 | -8.62942 | -35.08617 | 15415 ft | 385 kts | 216° |
| 2026-04-15 16:13 | -8.65136 | -35.10252 | 16085 ft | 389 kts | 217° |
| 2026-04-15 16:13 | -8.67294 | -35.11861 | 16772 ft | 392 kts | 217° |
| 2026-04-15 16:13 | -8.69499 | -35.13499 | 17454 ft | 396 kts | 217° |
| 2026-04-15 16:13 | -8.71729 | -35.15156 | 18132 ft | 400 kts | 217° |
| 2026-04-15 16:14 | -8.73978 | -35.16831 | 18815 ft | 404 kts | 217° |
| 2026-04-15 16:14 | -8.76248 | -35.18520 | 19500 ft | 407 kts | 217° |
| 2026-04-15 16:14 | -8.78540 | -35.20225 | 20186 ft | 411 kts | 217° |
| 2026-04-15 16:14 | -8.80861 | -35.21953 | 20861 ft | 415 kts | 217° |
| 2026-04-15 16:15 | -8.83197 | -35.23693 | 21521 ft | 419 kts | 218° |
| 2026-04-15 16:15 | -8.85557 | -35.25449 | 22157 ft | 424 kts | 218° |
| 2026-04-15 16:15 | -8.87943 | -35.27226 | 22806 ft | 427 kts | 218° |
| 2026-04-15 16:15 | -8.90394 | -35.28961 | 23386 ft | 432 kts | 216° |
| 2026-04-15 16:16 | -8.92877 | -35.30699 | 24011 ft | 435 kts | 217° |
| 2026-04-15 16:16 | -8.95372 | -35.32467 | 24607 ft | 439 kts | 217° |
| 2026-04-15 16:16 | -8.97888 | -35.34242 | 25216 ft | 443 kts | 217° |
| 2026-04-15 16:16 | -9.00399 | -35.35998 | 25817 ft | 446 kts | 217° |
| 2026-04-15 16:17 | -9.02962 | -35.37794 | 26395 ft | 449 kts | 217° |
| 2026-04-15 16:17 | -9.05534 | -35.39606 | 26964 ft | 453 kts | 217° |
| 2026-04-15 16:17 | -9.08128 | -35.41432 | 27527 ft | 456 kts | 217° |
| 2026-04-15 16:17 | -9.10743 | -35.43269 | 28079 ft | 460 kts | 217° |
| 2026-04-15 16:18 | -9.13389 | -35.45129 | 28618 ft | 463 kts | 217° |
| 2026-04-15 16:18 | -9.16040 | -35.46994 | 29127 ft | 466 kts | 217° |
| 2026-04-15 16:18 | -9.18717 | -35.48878 | 29624 ft | 469 kts | 218° |
| 2026-04-15 16:18 | -9.21403 | -35.50768 | 30093 ft | 472 kts | 218° |
| 2026-04-15 16:19 | -9.24105 | -35.52669 | 30546 ft | 475 kts | 218° |
| 2026-04-15 16:19 | -9.26826 | -35.54585 | 31024 ft | 476 kts | 218° |
| 2026-04-15 16:19 | -9.29538 | -35.56492 | 31738 ft | 472 kts | 218° |
| 2026-04-15 16:19 | -9.32190 | -35.58359 | 32404 ft | 469 kts | 218° |
| 2026-04-15 16:20 | -9.34890 | -35.60262 | 33082 ft | 465 kts | 218° |
| 2026-04-15 16:20 | -9.37502 | -35.62103 | 33738 ft | 461 kts | 218° |
| 2026-04-15 16:20 | -9.40157 | -35.63974 | 34432 ft | 457 kts | 218° |
| 2026-04-15 16:20 | -9.42760 | -35.65807 | 35083 ft | 454 kts | 218° |
| 2026-04-15 16:21 | -9.45343 | -35.67628 | 35681 ft | 452 kts | 219° |
| 2026-04-15 16:21 | -9.47918 | -35.69445 | 36258 ft | 450 kts | 219° |
| 2026-04-15 16:21 | -9.50444 | -35.71225 | 36808 ft | 448 kts | 219° |
| 2026-04-15 16:21 | -9.53003 | -35.73031 | 37383 ft | 446 kts | 219° |
| 2026-04-15 16:22 | -9.55532 | -35.74813 | 38072 ft | 440 kts | 219° |
| 2026-04-15 16:22 | -9.58029 | -35.76574 | 38748 ft | 436 kts | 219° |
| 2026-04-15 16:22 | -9.60515 | -35.78330 | 39263 ft | 435 kts | 219° |
| 2026-04-15 16:22 | -9.62997 | -35.80084 | 39723 ft | 435 kts | 219° |
| 2026-04-15 16:23 | -9.65502 | -35.81852 | 39909 ft | 443 kts | 219° |
| 2026-04-15 16:23 | -9.68059 | -35.83658 | 39907 ft | 454 kts | 215° |
| 2026-04-15 16:23 | -9.70671 | -35.85525 | 39888 ft | 462 kts | 220° |
| 2026-04-15 16:24 | -9.76045 | -35.89298 | 39929 ft | 482 kts | 218° |
| 2026-04-15 16:24 | -9.81616 | -35.93230 | 39924 ft | 489 kts | 219° |
| 2026-04-15 16:25 | -9.87203 | -35.97191 | 39923 ft | 490 kts | 219° |
| 2026-04-15 16:25 | -9.92803 | -36.01139 | 39922 ft | 490 kts | 219° |
| 2026-04-15 16:26 | -9.98398 | -36.05110 | 39920 ft | 490 kts | 219° |
| 2026-04-15 16:26 | -10.04000 | -36.09068 | 39920 ft | 491 kts | 219° |
| 2026-04-15 16:27 | -10.09561 | -36.13011 | 39918 ft | 490 kts | 219° |
| 2026-04-15 16:27 | -10.15167 | -36.16979 | 39921 ft | 490 kts | 219° |
| 2026-04-15 16:28 | -10.20764 | -36.20950 | 39921 ft | 490 kts | 219° |
| 2026-04-15 16:28 | -10.26358 | -36.24914 | 39921 ft | 491 kts | 219° |
| 2026-04-15 16:29 | -10.31955 | -36.28887 | 39920 ft | 491 kts | 219° |
| 2026-04-15 16:29 | -10.37559 | -36.32862 | 39920 ft | 491 kts | 219° |
| 2026-04-15 16:30 | -10.43124 | -36.36814 | 39922 ft | 491 kts | 219° |
| 2026-04-15 16:30 | -10.48726 | -36.40796 | 39920 ft | 492 kts | 219° |
| 2026-04-15 16:31 | -10.54331 | -36.44776 | 39921 ft | 492 kts | 219° |
| 2026-04-15 16:31 | -10.59935 | -36.48764 | 39922 ft | 491 kts | 219° |
| 2026-04-15 16:32 | -10.65537 | -36.52748 | 39925 ft | 491 kts | 219° |
| 2026-04-15 16:32 | -10.71136 | -36.56733 | 39923 ft | 492 kts | 219° |
| 2026-04-15 16:33 | -10.76737 | -36.60720 | 39922 ft | 492 kts | 219° |
| 2026-04-15 16:33 | -10.82335 | -36.64708 | 39922 ft | 491 kts | 219° |
| 2026-04-15 16:34 | -10.87928 | -36.68715 | 39922 ft | 491 kts | 219° |
| 2026-04-15 16:34 | -10.93501 | -36.72729 | 39921 ft | 491 kts | 219° |
| 2026-04-15 16:35 | -10.99047 | -36.76708 | 39922 ft | 491 kts | 219° |
| 2026-04-15 16:35 | -11.04627 | -36.80727 | 39923 ft | 491 kts | 219° |
| 2026-04-15 16:36 | -11.10212 | -36.84741 | 39921 ft | 491 kts | 219° |
| 2026-04-15 16:36 | -11.15801 | -36.88769 | 39924 ft | 492 kts | 219° |
| 2026-04-15 16:37 | -11.21382 | -36.92785 | 39924 ft | 491 kts | 219° |
| 2026-04-15 16:37 | -11.26968 | -36.96812 | 39921 ft | 492 kts | 219° |
| 2026-04-15 16:38 | -11.32522 | -37.00815 | 39921 ft | 492 kts | 219° |
| 2026-04-15 16:38 | -11.38122 | -37.04854 | 39922 ft | 493 kts | 219° |
| 2026-04-15 16:39 | -11.43712 | -37.08889 | 39922 ft | 492 kts | 219° |
| 2026-04-15 16:39 | -11.48366 | -37.12249 | 39919 ft | 493 kts | 219° |
| 2026-04-15 16:40 | -11.53955 | -37.16284 | 39922 ft | 493 kts | 219° |
| 2026-04-15 16:40 | -11.59555 | -37.20331 | 39921 ft | 493 kts | 219° |
| 2026-04-15 16:41 | -11.65155 | -37.24381 | 39922 ft | 493 kts | 219° |
| 2026-04-15 16:41 | -11.70760 | -37.28435 | 39924 ft | 494 kts | 219° |
| 2026-04-15 16:42 | -11.76366 | -37.32492 | 39923 ft | 494 kts | 219° |
| 2026-04-15 16:42 | -11.81967 | -37.36547 | 39922 ft | 493 kts | 219° |
| 2026-04-15 16:43 | -11.87563 | -37.40603 | 39921 ft | 494 kts | 218° |
| 2026-04-15 16:43 | -11.93168 | -37.44665 | 39921 ft | 494 kts | 218° |
| 2026-04-15 16:44 | -11.98764 | -37.48753 | 39923 ft | 494 kts | 219° |
| 2026-04-15 16:44 | -12.04360 | -37.52841 | 39923 ft | 494 kts | 218° |
| 2026-04-15 16:45 | -12.09957 | -37.56928 | 39923 ft | 493 kts | 218° |
| 2026-04-15 16:45 | -12.15497 | -37.60980 | 39929 ft | 491 kts | 218° |
| 2026-04-15 16:46 | -12.21088 | -37.65072 | 39926 ft | 495 kts | 218° |
| 2026-04-15 16:46 | -12.26688 | -37.69169 | 39925 ft | 496 kts | 218° |
| 2026-04-15 16:47 | -12.32313 | -37.73287 | 39931 ft | 497 kts | 218° |
| 2026-04-15 16:47 | -12.37933 | -37.77405 | 39929 ft | 497 kts | 218° |
| 2026-04-15 16:48 | -12.43543 | -37.81518 | 39929 ft | 495 kts | 218° |
| 2026-04-15 16:48 | -12.49147 | -37.85628 | 39929 ft | 496 kts | 218° |
| 2026-04-15 16:49 | -12.54753 | -37.89743 | 39932 ft | 496 kts | 219° |
| 2026-04-15 16:49 | -12.60359 | -37.93860 | 39931 ft | 496 kts | 218° |
| 2026-04-15 16:50 | -12.65925 | -37.97946 | 39929 ft | 494 kts | 219° |
| 2026-04-15 16:50 | -12.71522 | -38.02064 | 39929 ft | 494 kts | 218° |
| 2026-04-15 16:51 | -12.77112 | -38.06173 | 39933 ft | 494 kts | 218° |
| 2026-04-15 16:51 | -12.82688 | -38.10279 | 39934 ft | 494 kts | 218° |
| 2026-04-15 16:52 | -12.88264 | -38.14382 | 39931 ft | 493 kts | 218° |
| 2026-04-15 16:52 | -12.93798 | -38.18460 | 39931 ft | 492 kts | 218° |
| 2026-04-15 16:53 | -12.99352 | -38.22554 | 39931 ft | 491 kts | 218° |
| 2026-04-15 16:53 | -13.04903 | -38.26648 | 39933 ft | 492 kts | 218° |
| 2026-04-15 16:54 | -13.10918 | -38.30036 | 39920 ft | 498 kts | 203° |
| 2026-04-15 16:54 | -13.17612 | -38.31935 | 39942 ft | 500 kts | 198° |
| 2026-04-15 16:55 | -13.24344 | -38.33754 | 39953 ft | 500 kts | 198° |
| 2026-04-15 16:55 | -13.31065 | -38.35556 | 39951 ft | 498 kts | 198° |
| 2026-04-15 16:56 | -13.37678 | -38.37330 | 39407 ft | 483 kts | 198° |
| 2026-04-15 16:56 | -13.40877 | -38.38190 | 38777 ft | 467 kts | 198° |
| 2026-04-15 16:56 | -13.43970 | -38.39022 | 38168 ft | 451 kts | 198° |
| 2026-04-15 16:56 | -13.46959 | -38.39826 | 37580 ft | 437 kts | 198° |
| 2026-04-15 16:57 | -13.49874 | -38.40613 | 37009 ft | 429 kts | 198° |
| 2026-04-15 16:57 | -13.52745 | -38.41388 | 36445 ft | 426 kts | 198° |
| 2026-04-15 16:57 | -13.55624 | -38.42164 | 35873 ft | 432 kts | 198° |
| 2026-04-15 16:57 | -13.58574 | -38.42960 | 35295 ft | 444 kts | 197° |
| 2026-04-15 16:58 | -13.61581 | -38.43769 | 34700 ft | 449 kts | 197° |
| 2026-04-15 16:58 | -13.64611 | -38.44582 | 34107 ft | 450 kts | 197° |
| 2026-04-15 16:58 | -13.67643 | -38.45400 | 33528 ft | 451 kts | 197° |
| 2026-04-15 16:58 | -13.70683 | -38.46221 | 32918 ft | 451 kts | 197° |
| 2026-04-15 16:59 | -13.73722 | -38.47040 | 32315 ft | 451 kts | 196° |
| 2026-04-15 16:59 | -13.76724 | -38.47849 | 31721 ft | 451 kts | 196° |
| 2026-04-15 16:59 | -13.79757 | -38.48668 | 31119 ft | 451 kts | 196° |
| 2026-04-15 16:59 | -13.82802 | -38.49489 | 30515 ft | 452 kts | 196° |
| 2026-04-15 17:00 | -13.85832 | -38.50307 | 29915 ft | 448 kts | 196° |
| 2026-04-15 17:00 | -13.88819 | -38.51114 | 29323 ft | 441 kts | 196° |
| 2026-04-15 17:00 | -13.91735 | -38.52034 | 28742 ft | 438 kts | 199° |
| 2026-04-15 17:00 | -13.94637 | -38.52975 | 28160 ft | 436 kts | 198° |
| 2026-04-15 17:01 | -13.97535 | -38.53890 | 27582 ft | 433 kts | 198° |
| 2026-04-15 17:01 | -14.00411 | -38.54808 | 27015 ft | 431 kts | 198° |
| 2026-04-15 17:01 | -14.03268 | -38.55738 | 26443 ft | 428 kts | 198° |
| 2026-04-15 17:01 | -14.06109 | -38.56660 | 25874 ft | 426 kts | 198° |
| 2026-04-15 17:02 | -14.08936 | -38.57566 | 25309 ft | 424 kts | 198° |
| 2026-04-15 17:02 | -14.11745 | -38.58466 | 24748 ft | 422 kts | 198° |
| 2026-04-15 17:02 | -14.14504 | -38.59358 | 24196 ft | 420 kts | 198° |
| 2026-04-15 17:02 | -14.17282 | -38.60256 | 23639 ft | 418 kts | 198° |
| 2026-04-15 17:03 | -14.20053 | -38.61149 | 23086 ft | 416 kts | 198° |
| 2026-04-15 17:03 | -14.22811 | -38.62038 | 22530 ft | 414 kts | 198° |
| 2026-04-15 17:03 | -14.25551 | -38.62923 | 21991 ft | 411 kts | 198° |
| 2026-04-15 17:03 | -14.28280 | -38.63805 | 21435 ft | 409 kts | 198° |
| 2026-04-15 17:04 | -14.30981 | -38.64676 | 20899 ft | 405 kts | 198° |
| 2026-04-15 17:04 | -14.33675 | -38.65546 | 20359 ft | 404 kts | 198° |
| 2026-04-15 17:04 | -14.36342 | -38.66408 | 19825 ft | 400 kts | 198° |
| 2026-04-15 17:04 | -14.38997 | -38.67265 | 19292 ft | 399 kts | 198° |
| 2026-04-15 17:05 | -14.41632 | -38.68118 | 18771 ft | 396 kts | 198° |
| 2026-04-15 17:05 | -14.44253 | -38.68967 | 18241 ft | 394 kts | 198° |
| 2026-04-15 17:05 | -14.46863 | -38.69810 | 17721 ft | 392 kts | 198° |
| 2026-04-15 17:05 | -14.49457 | -38.70650 | 17199 ft | 389 kts | 199° |
| 2026-04-15 17:06 | -14.51999 | -38.71473 | 16691 ft | 387 kts | 198° |
| 2026-04-15 17:06 | -14.54562 | -38.72301 | 16172 ft | 384 kts | 198° |
| 2026-04-15 17:06 | -14.57108 | -38.73125 | 15666 ft | 383 kts | 199° |
| 2026-04-15 17:06 | -14.59639 | -38.73945 | 15161 ft | 380 kts | 199° |
| 2026-04-15 17:07 | -14.62133 | -38.74846 | 14627 ft | 377 kts | 206° |
| 2026-04-15 17:07 | -14.64420 | -38.76138 | 14156 ft | 374 kts | 211° |
| 2026-04-15 17:07 | -14.66661 | -38.77499 | 13666 ft | 372 kts | 212° |
| 2026-04-15 17:07 | -14.68906 | -38.78827 | 13169 ft | 371 kts | 211° |
| 2026-04-15 17:08 | -14.71156 | -38.80118 | 12683 ft | 369 kts | 210° |
| 2026-04-15 17:08 | -14.73390 | -38.81412 | 12188 ft | 367 kts | 211° |
| 2026-04-15 17:08 | -14.75599 | -38.82714 | 11693 ft | 365 kts | 211° |
| 2026-04-15 17:08 | -14.77796 | -38.84006 | 11220 ft | 357 kts | 211° |
| 2026-04-15 17:09 | -14.79868 | -38.85212 | 10758 ft | 334 kts | 211° |
| 2026-04-15 17:09 | -14.81832 | -38.86358 | 10325 ft | 315 kts | 211° |
| 2026-04-15 17:09 | -14.83686 | -38.87450 | 9911 ft | 299 kts | 211° |
| 2026-04-15 17:09 | -14.85469 | -38.88504 | 9518 ft | 292 kts | 210° |
| 2026-04-15 17:10 | -14.87227 | -38.89530 | 9145 ft | 289 kts | 210° |
| 2026-04-15 17:10 | -14.88978 | -38.90548 | 8768 ft | 288 kts | 210° |
| 2026-04-15 17:10 | -14.90719 | -38.91568 | 8383 ft | 287 kts | 209° |
| 2026-04-15 17:10 | -14.92450 | -38.92582 | 8006 ft | 285 kts | 209° |
| 2026-04-15 17:11 | -14.94169 | -38.93591 | 7627 ft | 283 kts | 209° |
| 2026-04-15 17:11 | -14.95866 | -38.94584 | 7251 ft | 274 kts | 209° |
| 2026-04-15 17:11 | -14.97442 | -38.95507 | 6895 ft | 253 kts | 209° |
| 2026-04-15 17:12 | -15.00445 | -38.97267 | 6239 ft | 244 kts | 209° |
| 2026-04-15 17:12 | -15.01911 | -38.98128 | 5920 ft | 241 kts | 209° |
| 2026-04-15 17:12 | -15.03363 | -38.98981 | 5609 ft | 239 kts | 209° |
| 2026-04-15 17:12 | -15.04802 | -38.99825 | 5293 ft | 235 kts | 209° |
| 2026-04-15 17:13 | -15.06212 | -39.00653 | 4974 ft | 231 kts | 208° |
| 2026-04-15 17:13 | -15.07595 | -39.01464 | 4674 ft | 230 kts | 208° |
| 2026-04-15 17:13 | -15.08973 | -39.02260 | 4354 ft | 220 kts | 207° |
| 2026-04-15 17:13 | -15.10443 | -39.02569 | 4020 ft | 217 kts | 177° |
| 2026-04-15 17:14 | -15.11929 | -39.02403 | 3850 ft | 215 kts | 173° |
| 2026-04-15 17:14 | -15.13343 | -39.02248 | 3645 ft | 199 kts | 174° |
| 2026-04-15 17:14 | -15.14674 | -39.02109 | 3447 ft | 187 kts | 174° |
| 2026-04-15 17:14 | -15.15950 | -39.01971 | 3239 ft | 182 kts | 173° |
| 2026-04-15 17:15 | -15.17206 | -39.01833 | 3046 ft | 181 kts | 174° |
| 2026-04-15 17:15 | -15.18468 | -39.01698 | 2848 ft | 183 kts | 174° |
| 2026-04-15 17:15 | -15.19731 | -39.01567 | 2647 ft | 183 kts | 174° |
| 2026-04-15 17:15 | -15.20997 | -39.01429 | 2455 ft | 183 kts | 173° |
| 2026-04-15 17:16 | -15.22262 | -39.01290 | 2245 ft | 183 kts | 174° |
| 2026-04-15 17:16 | -15.23525 | -39.01154 | 2047 ft | 182 kts | 174° |
| 2026-04-15 17:16 | -15.24771 | -39.01024 | 1845 ft | 174 kts | 174° |
| 2026-04-15 17:16 | -15.25937 | -39.00900 | 1692 ft | 157 kts | 173° |
| 2026-04-15 17:17 | -15.26925 | -39.00793 | 1506 ft | 132 kts | 173° |
| 2026-04-15 17:17 | -15.27811 | -39.00698 | 1346 ft | 126 kts | 173° |
| 2026-04-15 17:17 | -15.28679 | -39.00601 | 1187 ft | 125 kts | 173° |
| 2026-04-15 17:17 | -15.29554 | -39.00506 | 1024 ft | 127 kts | 173° |
| 2026-04-15 17:18 | -15.30430 | -39.00410 | 856 ft | 126 kts | 173° |
| 2026-04-15 17:18 | -15.31310 | -39.00311 | 685 ft | 126 kts | 172° |
| 2026-04-15 17:18 | -15.32184 | -39.00196 | 502 ft | 126 kts | 173° |
| 2026-04-15 17:18 | -15.33059 | -39.00101 | 308 ft | 126 kts | 174° |
| 2026-04-15 17:19 | -15.33922 | -39.00021 | 162 ft | 123 kts | 174° |
| 2026-04-15 17:19 | -15.34771 | -38.99934 | 28 ft | 119 kts | 174° |
| 2026-04-15 17:19 | -15.35527 | -38.99857 | 23 ft | 104 kts | 174° |
| 2026-04-15 17:19 | -15.36163 | -38.99789 | 22 ft | 60 kts | 174° |
| 2026-04-15 17:20 | -15.36349 | -38.99760 | 22 ft | 7 kts | 126° |
| 2026-04-15 17:20 | -15.36377 | -38.99751 | 24 ft | 5 kts | 214° |
| 2026-04-15 17:20 | -15.36366 | -38.99768 | 21 ft | 6 kts | 354° |
| 2026-04-15 17:20 | -15.36276 | -38.99778 | 22 ft | 17 kts | 353° |
| 2026-04-15 17:21 | -15.36164 | -38.99788 | 23 ft | 16 kts | 355° |
| 2026-04-15 17:21 | -15.36059 | -38.99799 | 24 ft | 15 kts | 354° |
| 2026-04-15 17:21 | -15.35958 | -38.99810 | 24 ft | 15 kts | 354° |
| 2026-04-15 17:21 | -15.35852 | -38.99821 | 23 ft | 17 kts | 354° |
| 2026-04-15 17:22 | -15.35744 | -38.99813 | 21 ft | 13 kts | 70° |
| 2026-04-15 17:22 | -15.35732 | -38.99752 | 23 ft | 0 kts | 82° |
| 2026-04-15 17:23 | -15.35732 | -38.99745 | 22 ft | 3 kts | 82° |
| 2026-04-15 17:23 | -15.35727 | -38.99706 | 22 ft | 7 kts | 82° |
| 2026-04-15 17:23 | -15.35720 | -38.99651 | 22 ft | 7 kts | 83° |
| 2026-04-15 17:23 | -15.35722 | -38.99623 | 22 ft | 1 kts | 122° |
| 2026-04-15 17:24 | -15.35728 | -38.99615 | 22 ft | 1 kts | 125° |
| 2026-04-15 17:24 | -15.35733 | -38.99607 | 24 ft | 1 kts | 128° |
| 2026-04-15 17:24 | -15.35738 | -38.99600 | 24 ft | 0 kts | 128° |